sensor_id;sensor_type;location;lat;lon;timestamp;P1;durP1;ratioP1;P2;durP2;ratioP2
7181;SDS011;3632;42.724;23.298;2022-10-04T00:00:57;3.30;;;1.80;;
7181;SDS011;3632;42.724;23.298;2022-10-04T00:03:29;2.37;;;1.80;;
7181;SDS011;3632;42.724;23.298;2022-10-04T00:06:00;4.43;;;2.20;;
7181;SDS011;3632;42.724;23.298;2022-10-04T00:08:30;4.53;;;2.10;;
7181;SDS011;3632;42.724;23.298;2022-10-04T00:11:06;4.37;;;2.00;;
7181;SDS011;3632;42.724;23.298;2022-10-04T00:13:39;4.37;;;2.00;;
7181;SDS011;3632;42.724;23.298;2022-10-04T00:16:07;5.10;;;1.70;;
7181;SDS011;3632;42.724;23.298;2022-10-04T00:18:46;2.30;;;1.80;;
7181;SDS011;3632;42.724;23.298;2022-10-04T00:21:13;2.43;;;1.80;;
7181;SDS011;3632;42.724;23.298;2022-10-04T00:23:46;2.23;;;1.70;;
7181;SDS011;3632;42.724;23.298;2022-10-04T00:29:29;4.67;;;2.07;;
7181;SDS011;3632;42.724;23.298;2022-10-04T00:34:59;2.13;;;1.70;;
7181;SDS011;3632;42.724;23.298;2022-10-04T00:37:26;3.33;;;1.60;;
7181;SDS011;3632;42.724;23.298;2022-10-04T00:40:14;3.27;;;1.80;;
7181;SDS011;3632;42.724;23.298;2022-10-04T00:42:46;3.47;;;1.90;;
7181;SDS011;3632;42.724;23.298;2022-10-04T00:45:24;3.10;;;1.60;;
7181;SDS011;3632;42.724;23.298;2022-10-04T00:48:03;2.63;;;1.73;;
7181;SDS011;3632;42.724;23.298;2022-10-04T00:50:41;2.60;;;1.60;;
7181;SDS011;3632;42.724;23.298;2022-10-04T00:53:17;2.67;;;1.60;;
7181;SDS011;3632;42.724;23.298;2022-10-04T00:55:49;2.00;;;1.50;;
7181;SDS011;3632;42.724;23.298;2022-10-04T00:58:21;2.77;;;1.70;;
7181;SDS011;3632;42.724;23.298;2022-10-04T01:00:53;4.50;;;1.83;;
7181;SDS011;3632;42.724;23.298;2022-10-04T01:03:22;2.37;;;1.40;;
7181;SDS011;3632;42.724;23.298;2022-10-04T01:05:55;2.57;;;1.53;;
7181;SDS011;3632;42.724;23.298;2022-10-04T01:08:26;1.50;;;1.40;;
7181;SDS011;3632;42.724;23.298;2022-10-04T01:10:57;2.53;;;1.53;;
7181;SDS011;3632;42.724;23.298;2022-10-04T01:13:29;3.50;;;1.80;;
7181;SDS011;3632;42.724;23.298;2022-10-04T01:16:02;2.17;;;1.50;;
7181;SDS011;3632;42.724;23.298;2022-10-04T01:18:36;1.80;;;1.40;;
7181;SDS011;3632;42.724;23.298;2022-10-04T01:21:03;1.70;;;1.57;;
7181;SDS011;3632;42.724;23.298;2022-10-04T01:23:38;2.03;;;1.60;;
7181;SDS011;3632;42.724;23.298;2022-10-04T01:29:04;2.90;;;1.67;;
7181;SDS011;3632;42.724;23.298;2022-10-04T01:31:33;2.27;;;1.60;;
7181;SDS011;3632;42.724;23.298;2022-10-04T01:34:02;1.97;;;1.63;;
7181;SDS011;3632;42.724;23.298;2022-10-04T01:36:31;2.83;;;1.53;;
7181;SDS011;3632;42.724;23.298;2022-10-04T01:39:00;1.60;;;1.50;;
7181;SDS011;3632;42.724;23.298;2022-10-04T01:41:29;1.63;;;1.37;;
7181;SDS011;3632;42.724;23.298;2022-10-04T01:44:03;1.87;;;1.70;;
7181;SDS011;3632;42.724;23.298;2022-10-04T01:46:35;1.93;;;1.60;;
7181;SDS011;3632;42.724;23.298;2022-10-04T01:49:06;3.23;;;1.60;;
7181;SDS011;3632;42.724;23.298;2022-10-04T01:51:41;2.30;;;1.47;;
7181;SDS011;3632;42.724;23.298;2022-10-04T01:54:14;2.53;;;1.47;;
7181;SDS011;3632;42.724;23.298;2022-10-04T01:56:45;5.23;;;1.67;;
7181;SDS011;3632;42.724;23.298;2022-10-04T01:59:19;4.33;;;1.77;;
7181;SDS011;3632;42.724;23.298;2022-10-04T02:01:49;1.93;;;1.50;;
7181;SDS011;3632;42.724;23.298;2022-10-04T02:04:29;1.50;;;1.40;;
7181;SDS011;3632;42.724;23.298;2022-10-04T02:06:59;1.80;;;1.47;;
7181;SDS011;3632;42.724;23.298;2022-10-04T02:09:30;1.63;;;1.27;;
7181;SDS011;3632;42.724;23.298;2022-10-04T02:11:59;2.07;;;1.40;;
7181;SDS011;3632;42.724;23.298;2022-10-04T02:14:28;3.70;;;1.67;;
7181;SDS011;3632;42.724;23.298;2022-10-04T02:16:58;1.63;;;1.40;;
7181;SDS011;3632;42.724;23.298;2022-10-04T02:19:27;2.63;;;2.10;;
7181;SDS011;3632;42.724;23.298;2022-10-04T02:22:00;4.20;;;1.80;;
7181;SDS011;3632;42.724;23.298;2022-10-04T02:24:31;2.80;;;1.70;;
7181;SDS011;3632;42.724;23.298;2022-10-04T02:27:00;3.17;;;1.93;;
7181;SDS011;3632;42.724;23.298;2022-10-04T02:29:27;7.90;;;2.73;;
7181;SDS011;3632;42.724;23.298;2022-10-04T02:31:54;3.50;;;2.00;;
7181;SDS011;3632;42.724;23.298;2022-10-04T02:34:39;2.10;;;1.90;;
7181;SDS011;3632;42.724;23.298;2022-10-04T02:37:06;2.27;;;1.80;;
7181;SDS011;3632;42.724;23.298;2022-10-04T02:39:35;3.50;;;1.80;;
7181;SDS011;3632;42.724;23.298;2022-10-04T02:42:08;4.00;;;2.30;;
7181;SDS011;3632;42.724;23.298;2022-10-04T02:44:41;2.57;;;1.90;;
7181;SDS011;3632;42.724;23.298;2022-10-04T02:47:11;3.07;;;1.90;;
7181;SDS011;3632;42.724;23.298;2022-10-04T02:49:43;2.27;;;1.70;;
7181;SDS011;3632;42.724;23.298;2022-10-04T02:52:13;3.97;;;2.03;;
7181;SDS011;3632;42.724;23.298;2022-10-04T02:54:47;2.50;;;1.93;;
7181;SDS011;3632;42.724;23.298;2022-10-04T02:57:21;2.27;;;1.87;;
7181;SDS011;3632;42.724;23.298;2022-10-04T02:59:49;3.00;;;1.90;;
7181;SDS011;3632;42.724;23.298;2022-10-04T03:02:20;3.93;;;2.20;;
7181;SDS011;3632;42.724;23.298;2022-10-04T03:04:49;6.07;;;4.40;;
7181;SDS011;3632;42.724;23.298;2022-10-04T03:07:18;3.07;;;2.30;;
7181;SDS011;3632;42.724;23.298;2022-10-04T03:09:48;3.97;;;2.03;;
7181;SDS011;3632;42.724;23.298;2022-10-04T03:12:15;3.63;;;2.30;;
7181;SDS011;3632;42.724;23.298;2022-10-04T03:14:43;2.80;;;1.90;;
7181;SDS011;3632;42.724;23.298;2022-10-04T03:17:10;3.27;;;1.93;;
7181;SDS011;3632;42.724;23.298;2022-10-04T03:19:41;2.10;;;1.90;;
7181;SDS011;3632;42.724;23.298;2022-10-04T03:22:09;2.50;;;1.50;;
7181;SDS011;3632;42.724;23.298;2022-10-04T03:24:38;2.17;;;1.70;;
7181;SDS011;3632;42.724;23.298;2022-10-04T03:27:14;8.43;;;4.37;;
7181;SDS011;3632;42.724;23.298;2022-10-04T03:29:45;11.77;;;7.50;;
7181;SDS011;3632;42.724;23.298;2022-10-04T03:32:14;5.53;;;3.77;;
7181;SDS011;3632;42.724;23.298;2022-10-04T03:34:46;4.13;;;2.40;;
7181;SDS011;3632;42.724;23.298;2022-10-04T03:37:17;3.83;;;2.53;;
7181;SDS011;3632;42.724;23.298;2022-10-04T03:39:46;4.13;;;2.27;;
7181;SDS011;3632;42.724;23.298;2022-10-04T03:42:16;4.00;;;2.30;;
7181;SDS011;3632;42.724;23.298;2022-10-04T03:44:45;3.87;;;2.60;;
7181;SDS011;3632;42.724;23.298;2022-10-04T03:47:16;4.80;;;2.47;;
7181;SDS011;3632;42.724;23.298;2022-10-04T03:49:47;4.87;;;2.10;;
7181;SDS011;3632;42.724;23.298;2022-10-04T03:52:16;3.53;;;2.20;;
7181;SDS011;3632;42.724;23.298;2022-10-04T03:54:47;4.97;;;2.47;;
7181;SDS011;3632;42.724;23.298;2022-10-04T03:57:18;5.90;;;2.40;;
7181;SDS011;3632;42.724;23.298;2022-10-04T03:59:46;2.73;;;2.50;;
7181;SDS011;3632;42.724;23.298;2022-10-04T04:02:15;2.80;;;2.33;;
7181;SDS011;3632;42.724;23.298;2022-10-04T04:04:50;4.10;;;2.20;;
7181;SDS011;3632;42.724;23.298;2022-10-04T04:07:26;3.37;;;2.10;;
7181;SDS011;3632;42.724;23.298;2022-10-04T04:10:00;2.90;;;2.10;;
7181;SDS011;3632;42.724;23.298;2022-10-04T04:12:33;4.30;;;2.37;;
7181;SDS011;3632;42.724;23.298;2022-10-04T04:15:05;3.10;;;2.20;;
7181;SDS011;3632;42.724;23.298;2022-10-04T04:17:36;3.50;;;2.10;;
7181;SDS011;3632;42.724;23.298;2022-10-04T04:20:12;4.30;;;2.23;;
7181;SDS011;3632;42.724;23.298;2022-10-04T04:22:47;3.63;;;2.37;;
7181;SDS011;3632;42.724;23.298;2022-10-04T04:25:27;3.70;;;2.03;;
7181;SDS011;3632;42.724;23.298;2022-10-04T04:28:01;3.47;;;2.20;;
7181;SDS011;3632;42.724;23.298;2022-10-04T04:30:37;4.37;;;2.37;;
7181;SDS011;3632;42.724;23.298;2022-10-04T04:33:11;6.00;;;2.57;;
7181;SDS011;3632;42.724;23.298;2022-10-04T04:35:46;3.30;;;2.80;;
7181;SDS011;3632;42.724;23.298;2022-10-04T04:38:14;4.53;;;2.20;;
7181;SDS011;3632;42.724;23.298;2022-10-04T04:40:44;5.90;;;2.57;;
7181;SDS011;3632;42.724;23.298;2022-10-04T04:43:23;3.80;;;2.50;;
7181;SDS011;3632;42.724;23.298;2022-10-04T04:45:52;5.93;;;2.67;;
7181;SDS011;3632;42.724;23.298;2022-10-04T04:48:22;3.67;;;2.30;;
7181;SDS011;3632;42.724;23.298;2022-10-04T04:50:51;3.50;;;2.63;;
7181;SDS011;3632;42.724;23.298;2022-10-04T04:53:20;4.33;;;2.70;;
7181;SDS011;3632;42.724;23.298;2022-10-04T04:55:49;4.10;;;2.43;;
7181;SDS011;3632;42.724;23.298;2022-10-04T04:58:23;4.20;;;3.00;;
7181;SDS011;3632;42.724;23.298;2022-10-04T05:00:53;4.23;;;2.30;;
7181;SDS011;3632;42.724;23.298;2022-10-04T05:03:23;4.03;;;2.70;;
7181;SDS011;3632;42.724;23.298;2022-10-04T05:05:50;5.97;;;2.33;;
7181;SDS011;3632;42.724;23.298;2022-10-04T05:08:20;6.27;;;2.90;;
7181;SDS011;3632;42.724;23.298;2022-10-04T05:10:51;4.77;;;3.00;;
7181;SDS011;3632;42.724;23.298;2022-10-04T05:13:32;4.27;;;2.70;;
7181;SDS011;3632;42.724;23.298;2022-10-04T05:16:04;7.23;;;3.83;;
7181;SDS011;3632;42.724;23.298;2022-10-04T05:18:37;7.13;;;4.10;;
7181;SDS011;3632;42.724;23.298;2022-10-04T05:21:04;7.77;;;4.30;;
7181;SDS011;3632;42.724;23.298;2022-10-04T05:23:37;6.40;;;4.17;;
7181;SDS011;3632;42.724;23.298;2022-10-04T05:26:04;7.93;;;3.87;;
7181;SDS011;3632;42.724;23.298;2022-10-04T05:28:38;6.23;;;4.00;;
7181;SDS011;3632;42.724;23.298;2022-10-04T05:31:16;6.97;;;3.80;;
7181;SDS011;3632;42.724;23.298;2022-10-04T05:33:57;11.77;;;4.20;;
7181;SDS011;3632;42.724;23.298;2022-10-04T05:36:34;5.03;;;3.70;;
7181;SDS011;3632;42.724;23.298;2022-10-04T05:39:18;13.60;;;6.60;;
7181;SDS011;3632;42.724;23.298;2022-10-04T05:41:55;15.73;;;8.77;;
7181;SDS011;3632;42.724;23.298;2022-10-04T05:44:28;8.47;;;5.00;;
7181;SDS011;3632;42.724;23.298;2022-10-04T05:47:00;7.37;;;2.90;;
7181;SDS011;3632;42.724;23.298;2022-10-04T05:49:32;4.33;;;2.50;;
7181;SDS011;3632;42.724;23.298;2022-10-04T05:52:05;3.57;;;2.33;;
7181;SDS011;3632;42.724;23.298;2022-10-04T05:54:39;4.40;;;2.43;;
7181;SDS011;3632;42.724;23.298;2022-10-04T05:57:10;5.43;;;2.90;;
7181;SDS011;3632;42.724;23.298;2022-10-04T06:00:02;7.67;;;2.70;;
7181;SDS011;3632;42.724;23.298;2022-10-04T06:02:39;4.47;;;2.60;;
7181;SDS011;3632;42.724;23.298;2022-10-04T06:05:20;3.23;;;2.60;;
7181;SDS011;3632;42.724;23.298;2022-10-04T06:07:52;4.93;;;2.90;;
7181;SDS011;3632;42.724;23.298;2022-10-04T06:10:31;4.37;;;3.30;;
7181;SDS011;3632;42.724;23.298;2022-10-04T06:13:12;4.13;;;2.60;;
7181;SDS011;3632;42.724;23.298;2022-10-04T06:15:54;3.60;;;2.50;;
7181;SDS011;3632;42.724;23.298;2022-10-04T06:21:35;3.63;;;2.57;;
7181;SDS011;3632;42.724;23.298;2022-10-04T06:24:21;4.00;;;2.40;;
7181;SDS011;3632;42.724;23.298;2022-10-04T06:26:52;6.90;;;2.40;;
7181;SDS011;3632;42.724;23.298;2022-10-04T06:29:25;4.57;;;2.10;;
7181;SDS011;3632;42.724;23.298;2022-10-04T06:32:11;2.40;;;2.17;;
7181;SDS011;3632;42.724;23.298;2022-10-04T06:37:49;2.93;;;2.03;;
7181;SDS011;3632;42.724;23.298;2022-10-04T06:43:41;2.47;;;2.03;;
7181;SDS011;3632;42.724;23.298;2022-10-04T06:46:20;2.80;;;2.30;;
7181;SDS011;3632;42.724;23.298;2022-10-04T06:58:03;2.90;;;1.90;;
7181;SDS011;3632;42.724;23.298;2022-10-04T07:00:50;3.40;;;2.00;;
7181;SDS011;3632;42.724;23.298;2022-10-04T07:03:24;2.50;;;2.10;;
7181;SDS011;3632;42.724;23.298;2022-10-04T07:05:58;2.40;;;2.07;;
7181;SDS011;3632;42.724;23.298;2022-10-04T07:08:32;6.60;;;2.27;;
7181;SDS011;3632;42.724;23.298;2022-10-04T07:11:04;5.50;;;2.20;;
7181;SDS011;3632;42.724;23.298;2022-10-04T07:13:40;2.70;;;2.43;;
7181;SDS011;3632;42.724;23.298;2022-10-04T07:16:21;4.57;;;2.40;;
7181;SDS011;3632;42.724;23.298;2022-10-04T07:18:55;5.87;;;2.20;;
7181;SDS011;3632;42.724;23.298;2022-10-04T07:21:35;2.70;;;2.40;;
7181;SDS011;3632;42.724;23.298;2022-10-04T07:26:47;3.37;;;1.90;;
7181;SDS011;3632;42.724;23.298;2022-10-04T07:29:16;4.20;;;1.90;;
7181;SDS011;3632;42.724;23.298;2022-10-04T07:31:46;2.13;;;1.93;;
7181;SDS011;3632;42.724;23.298;2022-10-04T07:34:19;5.37;;;2.00;;
7181;SDS011;3632;42.724;23.298;2022-10-04T07:36:52;4.40;;;2.00;;
7181;SDS011;3632;42.724;23.298;2022-10-04T07:39:21;2.17;;;1.93;;
7181;SDS011;3632;42.724;23.298;2022-10-04T07:41:52;2.03;;;1.83;;
7181;SDS011;3632;42.724;23.298;2022-10-04T07:44:28;6.70;;;2.43;;
7181;SDS011;3632;42.724;23.298;2022-10-04T07:47:02;2.17;;;2.00;;
7181;SDS011;3632;42.724;23.298;2022-10-04T07:49:39;2.93;;;2.37;;
7181;SDS011;3632;42.724;23.298;2022-10-04T07:55:12;2.43;;;1.90;;
7181;SDS011;3632;42.724;23.298;2022-10-04T07:57:49;3.33;;;2.10;;
7181;SDS011;3632;42.724;23.298;2022-10-04T08:00:27;2.40;;;2.20;;
7181;SDS011;3632;42.724;23.298;2022-10-04T08:03:17;4.10;;;2.40;;
7181;SDS011;3632;42.724;23.298;2022-10-04T08:05:53;2.37;;;2.17;;
7181;SDS011;3632;42.724;23.298;2022-10-04T08:08:39;2.10;;;1.90;;
7181;SDS011;3632;42.724;23.298;2022-10-04T08:11:25;2.97;;;1.67;;
7181;SDS011;3632;42.724;23.298;2022-10-04T08:14:18;2.37;;;1.80;;
7181;SDS011;3632;42.724;23.298;2022-10-04T08:16:55;3.17;;;2.00;;
7181;SDS011;3632;42.724;23.298;2022-10-04T08:19:38;3.07;;;2.10;;
7181;SDS011;3632;42.724;23.298;2022-10-04T08:22:15;2.93;;;2.10;;
7181;SDS011;3632;42.724;23.298;2022-10-04T08:24:55;2.93;;;1.90;;
7181;SDS011;3632;42.724;23.298;2022-10-04T08:27:32;2.03;;;1.80;;
7181;SDS011;3632;42.724;23.298;2022-10-04T08:30:08;2.57;;;2.00;;
7181;SDS011;3632;42.724;23.298;2022-10-04T08:32:50;3.50;;;1.77;;
7181;SDS011;3632;42.724;23.298;2022-10-04T08:35:35;3.93;;;1.93;;
7181;SDS011;3632;42.724;23.298;2022-10-04T08:38:26;2.30;;;2.10;;
7181;SDS011;3632;42.724;23.298;2022-10-04T08:47:27;2.50;;;1.93;;
7181;SDS011;3632;42.724;23.298;2022-10-04T08:50:22;3.17;;;1.83;;
7181;SDS011;3632;42.724;23.298;2022-10-04T08:53:26;2.83;;;2.00;;
7181;SDS011;3632;42.724;23.298;2022-10-04T08:56:35;3.07;;;1.90;;
7181;SDS011;3632;42.724;23.298;2022-10-04T08:59:25;2.30;;;1.90;;
7181;SDS011;3632;42.724;23.298;2022-10-04T09:08:20;2.47;;;1.90;;
7181;SDS011;3632;42.724;23.298;2022-10-04T09:11:17;4.03;;;1.97;;
7181;SDS011;3632;42.724;23.298;2022-10-04T09:14:06;3.83;;;2.03;;
7181;SDS011;3632;42.724;23.298;2022-10-04T09:16:51;4.40;;;2.10;;
7181;SDS011;3632;42.724;23.298;2022-10-04T09:19:28;1.70;;;1.60;;
7181;SDS011;3632;42.724;23.298;2022-10-04T09:22:23;2.47;;;2.00;;
7181;SDS011;3632;42.724;23.298;2022-10-04T09:25:18;4.33;;;2.07;;
7181;SDS011;3632;42.724;23.298;2022-10-04T09:28:05;2.17;;;1.77;;
7181;SDS011;3632;42.724;23.298;2022-10-04T09:31:02;4.00;;;1.70;;
7181;SDS011;3632;42.724;23.298;2022-10-04T09:33:47;2.63;;;2.00;;
7181;SDS011;3632;42.724;23.298;2022-10-04T09:39:28;4.17;;;1.93;;
7181;SDS011;3632;42.724;23.298;2022-10-04T09:42:11;3.00;;;1.63;;
7181;SDS011;3632;42.724;23.298;2022-10-04T09:53:56;2.93;;;2.00;;
7181;SDS011;3632;42.724;23.298;2022-10-04T09:56:42;2.40;;;2.20;;
7181;SDS011;3632;42.724;23.298;2022-10-04T09:59:35;4.77;;;1.60;;
7181;SDS011;3632;42.724;23.298;2022-10-04T10:02:34;2.30;;;1.80;;
7181;SDS011;3632;42.724;23.298;2022-10-04T10:05:26;1.73;;;1.63;;
7181;SDS011;3632;42.724;23.298;2022-10-04T10:08:07;1.67;;;1.50;;
7181;SDS011;3632;42.724;23.298;2022-10-04T10:10:44;2.43;;;1.80;;
7181;SDS011;3632;42.724;23.298;2022-10-04T10:16:53;2.33;;;2.07;;
7181;SDS011;3632;42.724;23.298;2022-10-04T10:25:45;4.00;;;1.83;;
7181;SDS011;3632;42.724;23.298;2022-10-04T10:28:41;1.87;;;1.57;;
7181;SDS011;3632;42.724;23.298;2022-10-04T10:31:33;2.90;;;1.80;;
7181;SDS011;3632;42.724;23.298;2022-10-04T10:37:16;2.47;;;2.23;;
7181;SDS011;3632;42.724;23.298;2022-10-04T10:43:04;3.20;;;2.13;;
7181;SDS011;3632;42.724;23.298;2022-10-04T10:48:33;4.43;;;1.80;;
7181;SDS011;3632;42.724;23.298;2022-10-04T10:51:33;1.70;;;1.60;;
7181;SDS011;3632;42.724;23.298;2022-10-04T10:54:30;2.30;;;2.07;;
7181;SDS011;3632;42.724;23.298;2022-10-04T10:57:20;2.87;;;1.73;;
7181;SDS011;3632;42.724;23.298;2022-10-04T11:00:19;1.90;;;1.80;;
7181;SDS011;3632;42.724;23.298;2022-10-04T11:02:53;2.57;;;1.90;;
7181;SDS011;3632;42.724;23.298;2022-10-04T11:05:51;2.73;;;1.83;;
7181;SDS011;3632;42.724;23.298;2022-10-04T11:08:44;2.43;;;1.90;;
7181;SDS011;3632;42.724;23.298;2022-10-04T11:11:43;2.07;;;1.87;;
7181;SDS011;3632;42.724;23.298;2022-10-04T11:14:54;1.60;;;1.50;;
7181;SDS011;3632;42.724;23.298;2022-10-04T11:17:54;2.50;;;1.67;;
7181;SDS011;3632;42.724;23.298;2022-10-04T11:20:51;3.13;;;1.70;;
7181;SDS011;3632;42.724;23.298;2022-10-04T11:23:45;3.00;;;1.50;;
7181;SDS011;3632;42.724;23.298;2022-10-04T11:26:48;2.03;;;1.70;;
7181;SDS011;3632;42.724;23.298;2022-10-04T11:29:31;2.77;;;1.70;;
7181;SDS011;3632;42.724;23.298;2022-10-04T11:35:43;2.73;;;1.77;;
7181;SDS011;3632;42.724;23.298;2022-10-04T11:41:17;3.43;;;1.90;;
7181;SDS011;3632;42.724;23.298;2022-10-04T11:47:01;2.70;;;1.77;;
7181;SDS011;3632;42.724;23.298;2022-10-04T11:49:56;4.40;;;1.70;;
7181;SDS011;3632;42.724;23.298;2022-10-04T11:52:53;2.47;;;1.70;;
7181;SDS011;3632;42.724;23.298;2022-10-04T11:55:48;2.00;;;1.80;;
7181;SDS011;3632;42.724;23.298;2022-10-04T11:58:24;2.80;;;1.70;;
7181;SDS011;3632;42.724;23.298;2022-10-04T12:01:07;4.03;;;2.37;;
7181;SDS011;3632;42.724;23.298;2022-10-04T12:03:59;3.13;;;2.10;;
7181;SDS011;3632;42.724;23.298;2022-10-04T12:06:46;2.90;;;1.80;;
7181;SDS011;3632;42.724;23.298;2022-10-04T12:09:25;4.00;;;1.67;;
7181;SDS011;3632;42.724;23.298;2022-10-04T12:12:06;2.77;;;1.77;;
7181;SDS011;3632;42.724;23.298;2022-10-04T12:15:07;1.80;;;1.70;;
7181;SDS011;3632;42.724;23.298;2022-10-04T12:21:16;3.97;;;1.90;;
7181;SDS011;3632;42.724;23.298;2022-10-04T12:27:06;3.90;;;1.80;;
7181;SDS011;3632;42.724;23.298;2022-10-04T12:35:46;3.47;;;1.70;;
7181;SDS011;3632;42.724;23.298;2022-10-04T12:38:35;1.97;;;1.50;;
7181;SDS011;3632;42.724;23.298;2022-10-04T12:41:18;2.70;;;1.73;;
7181;SDS011;3632;42.724;23.298;2022-10-04T12:43:58;1.77;;;1.60;;
7181;SDS011;3632;42.724;23.298;2022-10-04T12:46:36;3.93;;;1.63;;
7181;SDS011;3632;42.724;23.298;2022-10-04T12:49:15;1.77;;;1.40;;
7181;SDS011;3632;42.724;23.298;2022-10-04T12:51:51;1.60;;;1.50;;
7181;SDS011;3632;42.724;23.298;2022-10-04T12:54:31;2.83;;;1.80;;
7181;SDS011;3632;42.724;23.298;2022-10-04T12:57:16;1.60;;;1.50;;
7181;SDS011;3632;42.724;23.298;2022-10-04T12:59:59;1.60;;;1.50;;
7181;SDS011;3632;42.724;23.298;2022-10-04T13:05:34;3.47;;;1.90;;
7181;SDS011;3632;42.724;23.298;2022-10-04T13:08:11;8.00;;;1.97;;
7181;SDS011;3632;42.724;23.298;2022-10-04T13:10:54;2.50;;;1.80;;
7181;SDS011;3632;42.724;23.298;2022-10-04T13:13:55;2.73;;;1.90;;
7181;SDS011;3632;42.724;23.298;2022-10-04T13:16:43;1.80;;;1.70;;
7181;SDS011;3632;42.724;23.298;2022-10-04T13:19:18;2.77;;;1.80;;
7181;SDS011;3632;42.724;23.298;2022-10-04T13:24:49;2.20;;;2.00;;
7181;SDS011;3632;42.724;23.298;2022-10-04T13:27:27;3.70;;;2.10;;
7181;SDS011;3632;42.724;23.298;2022-10-04T13:30:03;3.33;;;2.00;;
7181;SDS011;3632;42.724;23.298;2022-10-04T13:32:34;4.30;;;2.53;;
7181;SDS011;3632;42.724;23.298;2022-10-04T13:35:12;4.00;;;1.97;;
7181;SDS011;3632;42.724;23.298;2022-10-04T13:37:48;3.80;;;2.20;;
7181;SDS011;3632;42.724;23.298;2022-10-04T13:40:29;2.30;;;2.10;;
7181;SDS011;3632;42.724;23.298;2022-10-04T13:43:17;5.10;;;1.97;;
7181;SDS011;3632;42.724;23.298;2022-10-04T13:46:22;4.03;;;2.13;;
7181;SDS011;3632;42.724;23.298;2022-10-04T13:49:02;2.23;;;2.00;;
7181;SDS011;3632;42.724;23.298;2022-10-04T13:51:53;4.63;;;2.00;;
7181;SDS011;3632;42.724;23.298;2022-10-04T13:54:50;2.53;;;2.00;;
7181;SDS011;3632;42.724;23.298;2022-10-04T13:57:45;2.23;;;1.80;;
7181;SDS011;3632;42.724;23.298;2022-10-04T14:00:19;3.37;;;2.47;;
7181;SDS011;3632;42.724;23.298;2022-10-04T14:03:15;2.60;;;2.07;;
7181;SDS011;3632;42.724;23.298;2022-10-04T14:06:11;2.40;;;2.20;;
7181;SDS011;3632;42.724;23.298;2022-10-04T14:09:06;4.07;;;2.30;;
7181;SDS011;3632;42.724;23.298;2022-10-04T14:12:06;3.63;;;2.20;;
7181;SDS011;3632;42.724;23.298;2022-10-04T14:15:15;2.27;;;2.00;;
7181;SDS011;3632;42.724;23.298;2022-10-04T14:30:16;3.20;;;2.10;;
7181;SDS011;3632;42.724;23.298;2022-10-04T14:33:08;2.53;;;2.30;;
7181;SDS011;3632;42.724;23.298;2022-10-04T14:35:54;4.90;;;2.23;;
7181;SDS011;3632;42.724;23.298;2022-10-04T14:38:41;3.83;;;2.50;;
7181;SDS011;3632;42.724;23.298;2022-10-04T14:47:38;3.13;;;2.30;;
7181;SDS011;3632;42.724;23.298;2022-10-04T14:50:27;3.23;;;2.47;;
7181;SDS011;3632;42.724;23.298;2022-10-04T14:53:06;2.30;;;2.10;;
7181;SDS011;3632;42.724;23.298;2022-10-04T14:58:57;4.70;;;2.23;;
7181;SDS011;3632;42.724;23.298;2022-10-04T15:01:33;3.17;;;2.27;;
7181;SDS011;3632;42.724;23.298;2022-10-04T15:04:16;3.20;;;2.47;;
7181;SDS011;3632;42.724;23.298;2022-10-04T15:06:54;3.03;;;2.67;;
7181;SDS011;3632;42.724;23.298;2022-10-04T15:09:32;3.53;;;2.67;;
7181;SDS011;3632;42.724;23.298;2022-10-04T15:12:37;5.20;;;2.77;;
7181;SDS011;3632;42.724;23.298;2022-10-04T15:18:23;4.10;;;2.93;;
7181;SDS011;3632;42.724;23.298;2022-10-04T15:20:57;15.03;;;3.40;;
7181;SDS011;3632;42.724;23.298;2022-10-04T15:23:28;3.03;;;2.70;;
7181;SDS011;3632;42.724;23.298;2022-10-04T15:26:04;3.10;;;2.50;;
7181;SDS011;3632;42.724;23.298;2022-10-04T15:29:04;3.43;;;2.73;;
7181;SDS011;3632;42.724;23.298;2022-10-04T15:31:49;3.47;;;3.00;;
7181;SDS011;3632;42.724;23.298;2022-10-04T15:34:28;3.33;;;2.33;;
7181;SDS011;3632;42.724;23.298;2022-10-04T15:37:02;4.67;;;2.90;;
7181;SDS011;3632;42.724;23.298;2022-10-04T15:39:48;6.63;;;3.10;;
7181;SDS011;3632;42.724;23.298;2022-10-04T15:42:28;5.07;;;3.10;;
7181;SDS011;3632;42.724;23.298;2022-10-04T15:45:04;3.47;;;3.07;;
7181;SDS011;3632;42.724;23.298;2022-10-04T15:47:50;7.50;;;2.80;;
7181;SDS011;3632;42.724;23.298;2022-10-04T15:50:27;4.47;;;3.00;;
7181;SDS011;3632;42.724;23.298;2022-10-04T15:56:07;4.30;;;2.93;;
7181;SDS011;3632;42.724;23.298;2022-10-04T15:58:52;4.43;;;2.93;;
7181;SDS011;3632;42.724;23.298;2022-10-04T16:01:47;3.80;;;2.67;;
7181;SDS011;3632;42.724;23.298;2022-10-04T16:04:37;3.00;;;2.67;;
7181;SDS011;3632;42.724;23.298;2022-10-04T16:07:14;5.57;;;2.73;;
7181;SDS011;3632;42.724;23.298;2022-10-04T16:09:57;9.13;;;3.30;;
7181;SDS011;3632;42.724;23.298;2022-10-04T16:12:51;5.50;;;3.20;;
7181;SDS011;3632;42.724;23.298;2022-10-04T16:15:39;4.50;;;2.97;;
7181;SDS011;3632;42.724;23.298;2022-10-04T16:18:15;6.30;;;3.80;;
7181;SDS011;3632;42.724;23.298;2022-10-04T16:21:11;4.53;;;3.33;;
7181;SDS011;3632;42.724;23.298;2022-10-04T16:27:05;5.70;;;4.30;;
7181;SDS011;3632;42.724;23.298;2022-10-04T16:29:58;5.23;;;4.60;;
7181;SDS011;3632;42.724;23.298;2022-10-04T16:32:35;5.57;;;4.33;;
7181;SDS011;3632;42.724;23.298;2022-10-04T16:35:14;6.40;;;4.00;;
7181;SDS011;3632;42.724;23.298;2022-10-04T16:37:52;6.20;;;4.17;;
7181;SDS011;3632;42.724;23.298;2022-10-04T16:40:26;6.47;;;4.40;;
7181;SDS011;3632;42.724;23.298;2022-10-04T16:43:01;6.30;;;4.10;;
7181;SDS011;3632;42.724;23.298;2022-10-04T16:45:34;9.00;;;4.00;;
7181;SDS011;3632;42.724;23.298;2022-10-04T16:48:26;4.03;;;3.40;;
7181;SDS011;3632;42.724;23.298;2022-10-04T16:51:16;5.20;;;3.90;;
7181;SDS011;3632;42.724;23.298;2022-10-04T16:54:07;7.90;;;4.07;;
7181;SDS011;3632;42.724;23.298;2022-10-04T16:59:43;12.60;;;6.57;;
7181;SDS011;3632;42.724;23.298;2022-10-04T17:02:18;11.83;;;7.57;;
7181;SDS011;3632;42.724;23.298;2022-10-04T17:05:06;9.53;;;6.70;;
7181;SDS011;3632;42.724;23.298;2022-10-04T17:08:02;12.17;;;7.03;;
7181;SDS011;3632;42.724;23.298;2022-10-04T17:11:00;8.37;;;6.20;;
7181;SDS011;3632;42.724;23.298;2022-10-04T17:13:46;9.50;;;6.87;;
7181;SDS011;3632;42.724;23.298;2022-10-04T17:16:20;9.47;;;6.67;;
7181;SDS011;3632;42.724;23.298;2022-10-04T17:19:09;12.77;;;7.97;;
7181;SDS011;3632;42.724;23.298;2022-10-04T17:21:43;10.63;;;7.27;;
7181;SDS011;3632;42.724;23.298;2022-10-04T17:24:22;8.87;;;7.07;;
7181;SDS011;3632;42.724;23.298;2022-10-04T17:27:01;11.23;;;7.97;;
7181;SDS011;3632;42.724;23.298;2022-10-04T17:29:46;10.10;;;7.37;;
7181;SDS011;3632;42.724;23.298;2022-10-04T17:32:25;10.60;;;7.00;;
7181;SDS011;3632;42.724;23.298;2022-10-04T17:35:03;8.80;;;7.43;;
7181;SDS011;3632;42.724;23.298;2022-10-04T17:37:43;10.40;;;7.27;;
7181;SDS011;3632;42.724;23.298;2022-10-04T17:40:25;14.13;;;8.67;;
7181;SDS011;3632;42.724;23.298;2022-10-04T17:43:04;10.90;;;7.20;;
7181;SDS011;3632;42.724;23.298;2022-10-04T17:48:19;11.20;;;7.77;;
7181;SDS011;3632;42.724;23.298;2022-10-04T17:51:09;10.90;;;6.60;;
7181;SDS011;3632;42.724;23.298;2022-10-04T17:53:59;10.83;;;6.93;;
7181;SDS011;3632;42.724;23.298;2022-10-04T17:56:57;9.00;;;5.70;;
7181;SDS011;3632;42.724;23.298;2022-10-04T17:59:37;6.97;;;6.10;;
7181;SDS011;3632;42.724;23.298;2022-10-04T18:02:08;10.27;;;6.77;;
7181;SDS011;3632;42.724;23.298;2022-10-04T18:04:44;8.87;;;6.50;;
7181;SDS011;3632;42.724;23.298;2022-10-04T18:07:16;7.80;;;6.90;;
7181;SDS011;3632;42.724;23.298;2022-10-04T18:09:46;13.50;;;8.53;;
7181;SDS011;3632;42.724;23.298;2022-10-04T18:12:22;15.00;;;10.73;;
7181;SDS011;3632;42.724;23.298;2022-10-04T18:14:58;16.47;;;9.20;;
7181;SDS011;3632;42.724;23.298;2022-10-04T18:17:34;15.77;;;11.50;;
7181;SDS011;3632;42.724;23.298;2022-10-04T18:20:18;15.70;;;11.77;;
7181;SDS011;3632;42.724;23.298;2022-10-04T18:22:54;13.10;;;10.83;;
7181;SDS011;3632;42.724;23.298;2022-10-04T18:25:23;16.00;;;12.53;;
7181;SDS011;3632;42.724;23.298;2022-10-04T18:27:58;19.00;;;14.30;;
7181;SDS011;3632;42.724;23.298;2022-10-04T18:30:31;21.90;;;14.53;;
7181;SDS011;3632;42.724;23.298;2022-10-04T18:32:58;10.20;;;8.33;;